sensor_id;sensor_type;location;lat;lon;timestamp;P1;durP1;ratioP1;P2;durP2;ratioP2
76393;SDS011;65216;51.090;-115.352;2024-01-15T00:00:42;29.60;;;3.40;;
76393;SDS011;65216;51.090;-115.352;2024-01-15T00:03:09;37.10;;;3.50;;
76393;SDS011;65216;51.090;-115.352;2024-01-15T00:05:39;27.70;;;2.60;;
76393;SDS011;65216;51.090;-115.352;2024-01-15T00:08:06;35.10;;;3.10;;
76393;SDS011;65216;51.090;-115.352;2024-01-15T00:10:33;29.40;;;3.10;;
76393;SDS011;65216;51.090;-115.352;2024-01-15T00:13:00;31.40;;;3.60;;
76393;SDS011;65216;51.090;-115.352;2024-01-15T00:15:26;35.30;;;2.90;;
76393;SDS011;65216;51.090;-115.352;2024-01-15T00:17:54;26.40;;;3.40;;
76393;SDS011;65216;51.090;-115.352;2024-01-15T00:20:23;24.50;;;2.90;;
76393;SDS011;65216;51.090;-115.352;2024-01-15T00:22:52;27.50;;;3.00;;
76393;SDS011;65216;51.090;-115.352;2024-01-15T00:25:20;26.50;;;2.90;;
76393;SDS011;65216;51.090;-115.352;2024-01-15T00:27:47;30.60;;;3.50;;
76393;SDS011;65216;51.090;-115.352;2024-01-15T00:30:15;26.40;;;2.30;;
76393;SDS011;65216;51.090;-115.352;2024-01-15T00:32:41;27.30;;;3.00;;
76393;SDS011;65216;51.090;-115.352;2024-01-15T00:35:08;34.10;;;3.50;;
76393;SDS011;65216;51.090;-115.352;2024-01-15T00:37:36;34.70;;;3.20;;
76393;SDS011;65216;51.090;-115.352;2024-01-15T00:40:04;26.40;;;2.30;;
76393;SDS011;65216;51.090;-115.352;2024-01-15T00:42:34;33.50;;;3.00;;
76393;SDS011;65216;51.090;-115.352;2024-01-15T00:45:01;30.10;;;3.20;;
76393;SDS011;65216;51.090;-115.352;2024-01-15T00:47:28;32.80;;;2.90;;
76393;SDS011;65216;51.090;-115.352;2024-01-15T00:49:55;34.00;;;3.30;;
76393;SDS011;65216;51.090;-115.352;2024-01-15T00:52:22;26.20;;;2.90;;
76393;SDS011;65216;51.090;-115.352;2024-01-15T00:54:49;26.40;;;4.50;;
76393;SDS011;65216;51.090;-115.352;2024-01-15T00:57:16;26.60;;;2.60;;
76393;SDS011;65216;51.090;-115.352;2024-01-15T00:59:47;25.50;;;3.30;;
76393;SDS011;65216;51.090;-115.352;2024-01-15T01:02:14;29.20;;;2.70;;
76393;SDS011;65216;51.090;-115.352;2024-01-15T01:04:41;27.60;;;3.20;;
76393;SDS011;65216;51.090;-115.352;2024-01-15T01:07:08;34.50;;;3.50;;
76393;SDS011;65216;51.090;-115.352;2024-01-15T01:09:35;25.20;;;3.60;;
76393;SDS011;65216;51.090;-115.352;2024-01-15T01:12:03;34.80;;;3.30;;
76393;SDS011;65216;51.090;-115.352;2024-01-15T01:14:30;33.80;;;4.30;;
76393;SDS011;65216;51.090;-115.352;2024-01-15T01:16:58;27.80;;;3.20;;
76393;SDS011;65216;51.090;-115.352;2024-01-15T01:19:26;35.30;;;3.10;;
76393;SDS011;65216;51.090;-115.352;2024-01-15T01:21:53;34.70;;;4.20;;
76393;SDS011;65216;51.090;-115.352;2024-01-15T01:24:20;28.30;;;3.00;;
76393;SDS011;65216;51.090;-115.352;2024-01-15T01:26:47;33.60;;;4.60;;
76393;SDS011;65216;51.090;-115.352;2024-01-15T01:29:15;34.60;;;4.40;;
76393;SDS011;65216;51.090;-115.352;2024-01-15T01:31:45;28.00;;;2.80;;
76393;SDS011;65216;51.090;-115.352;2024-01-15T01:34:16;32.40;;;3.50;;
76393;SDS011;65216;51.090;-115.352;2024-01-15T01:36:43;37.40;;;3.60;;
76393;SDS011;65216;51.090;-115.352;2024-01-15T01:39:10;25.00;;;3.50;;
76393;SDS011;65216;51.090;-115.352;2024-01-15T01:41:38;30.20;;;2.90;;
76393;SDS011;65216;51.090;-115.352;2024-01-15T01:44:06;33.40;;;3.60;;
76393;SDS011;65216;51.090;-115.352;2024-01-15T01:46:34;33.80;;;3.10;;
76393;SDS011;65216;51.090;-115.352;2024-01-15T01:49:07;47.40;;;4.10;;
76393;SDS011;65216;51.090;-115.352;2024-01-15T01:51:35;31.10;;;2.90;;
76393;SDS011;65216;51.090;-115.352;2024-01-15T01:54:05;31.10;;;3.30;;
76393;SDS011;65216;51.090;-115.352;2024-01-15T01:56:35;33.20;;;4.00;;
76393;SDS011;65216;51.090;-115.352;2024-01-15T01:59:04;30.60;;;2.90;;
76393;SDS011;65216;51.090;-115.352;2024-01-15T02:01:36;29.30;;;3.60;;
76393;SDS011;65216;51.090;-115.352;2024-01-15T02:04:04;33.50;;;2.90;;
76393;SDS011;65216;51.090;-115.352;2024-01-15T02:06:34;30.80;;;3.60;;
76393;SDS011;65216;51.090;-115.352;2024-01-15T02:09:02;25.80;;;2.90;;
76393;SDS011;65216;51.090;-115.352;2024-01-15T02:11:31;27.00;;;2.90;;
76393;SDS011;65216;51.090;-115.352;2024-01-15T02:13:59;26.00;;;2.80;;
76393;SDS011;65216;51.090;-115.352;2024-01-15T02:16:26;27.60;;;2.70;;
76393;SDS011;65216;51.090;-115.352;2024-01-15T02:18:56;35.10;;;3.90;;
76393;SDS011;65216;51.090;-115.352;2024-01-15T02:21:26;24.70;;;2.50;;
76393;SDS011;65216;51.090;-115.352;2024-01-15T02:23:58;29.50;;;3.00;;
76393;SDS011;65216;51.090;-115.352;2024-01-15T02:26:26;23.60;;;3.50;;
76393;SDS011;65216;51.090;-115.352;2024-01-15T02:28:54;22.10;;;2.20;;
76393;SDS011;65216;51.090;-115.352;2024-01-15T02:31:21;29.50;;;3.20;;
76393;SDS011;65216;51.090;-115.352;2024-01-15T02:33:52;18.70;;;2.60;;
76393;SDS011;65216;51.090;-115.352;2024-01-15T02:36:20;22.30;;;3.00;;
76393;SDS011;65216;51.090;-115.352;2024-01-15T02:38:47;23.10;;;2.60;;
76393;SDS011;65216;51.090;-115.352;2024-01-15T02:41:14;22.90;;;2.20;;
76393;SDS011;65216;51.090;-115.352;2024-01-15T02:43:45;18.50;;;2.30;;
76393;SDS011;65216;51.090;-115.352;2024-01-15T02:46:13;17.80;;;2.40;;
76393;SDS011;65216;51.090;-115.352;2024-01-15T02:48:40;25.20;;;3.30;;
76393;SDS011;65216;51.090;-115.352;2024-01-15T02:51:08;18.70;;;2.40;;
76393;SDS011;65216;51.090;-115.352;2024-01-15T02:53:36;22.30;;;2.20;;
76393;SDS011;65216;51.090;-115.352;2024-01-15T02:56:03;20.10;;;2.70;;
76393;SDS011;65216;51.090;-115.352;2024-01-15T02:58:31;17.60;;;2.00;;
76393;SDS011;65216;51.090;-115.352;2024-01-15T03:00:59;14.30;;;2.00;;
76393;SDS011;65216;51.090;-115.352;2024-01-15T03:03:29;12.30;;;1.80;;
76393;SDS011;65216;51.090;-115.352;2024-01-15T03:05:56;17.30;;;2.30;;
76393;SDS011;65216;51.090;-115.352;2024-01-15T03:08:23;17.50;;;1.80;;
76393;SDS011;65216;51.090;-115.352;2024-01-15T03:10:50;13.40;;;2.20;;
76393;SDS011;65216;51.090;-115.352;2024-01-15T03:13:17;18.80;;;2.10;;
76393;SDS011;65216;51.090;-115.352;2024-01-15T03:15:45;14.30;;;2.20;;
76393;SDS011;65216;51.090;-115.352;2024-01-15T03:18:13;21.00;;;2.20;;
76393;SDS011;65216;51.090;-115.352;2024-01-15T03:20:40;15.80;;;2.10;;
76393;SDS011;65216;51.090;-115.352;2024-01-15T03:23:07;11.80;;;1.70;;
76393;SDS011;65216;51.090;-115.352;2024-01-15T03:25:35;15.20;;;2.00;;
76393;SDS011;65216;51.090;-115.352;2024-01-15T03:28:02;21.60;;;2.50;;
76393;SDS011;65216;51.090;-115.352;2024-01-15T03:30:31;20.70;;;2.20;;
76393;SDS011;65216;51.090;-115.352;2024-01-15T03:32:59;19.00;;;2.10;;
76393;SDS011;65216;51.090;-115.352;2024-01-15T03:35:26;20.80;;;2.00;;
76393;SDS011;65216;51.090;-115.352;2024-01-15T03:37:55;17.10;;;1.90;;
76393;SDS011;65216;51.090;-115.352;2024-01-15T03:40:22;22.60;;;2.60;;
76393;SDS011;65216;51.090;-115.352;2024-01-15T03:42:50;12.40;;;1.90;;
76393;SDS011;65216;51.090;-115.352;2024-01-15T03:45:18;12.30;;;1.80;;
76393;SDS011;65216;51.090;-115.352;2024-01-15T03:47:48;18.20;;;2.20;;
76393;SDS011;65216;51.090;-115.352;2024-01-15T03:50:15;20.10;;;2.10;;
76393;SDS011;65216;51.090;-115.352;2024-01-15T03:52:43;13.40;;;1.70;;
76393;SDS011;65216;51.090;-115.352;2024-01-15T03:55:10;17.90;;;1.80;;
76393;SDS011;65216;51.090;-115.352;2024-01-15T03:57:37;16.30;;;2.10;;
76393;SDS011;65216;51.090;-115.352;2024-01-15T04:00:05;18.10;;;2.10;;
76393;SDS011;65216;51.090;-115.352;2024-01-15T04:02:33;16.00;;;1.60;;
76393;SDS011;65216;51.090;-115.352;2024-01-15T04:05:00;14.60;;;1.80;;
76393;SDS011;65216;51.090;-115.352;2024-01-15T04:07:27;12.90;;;1.50;;
76393;SDS011;65216;51.090;-115.352;2024-01-15T04:09:55;9.30;;;1.90;;
76393;SDS011;65216;51.090;-115.352;2024-01-15T04:12:22;12.20;;;1.40;;
76393;SDS011;65216;51.090;-115.352;2024-01-15T04:14:49;13.70;;;1.70;;
76393;SDS011;65216;51.090;-115.352;2024-01-15T04:17:16;9.40;;;1.10;;
76393;SDS011;65216;51.090;-115.352;2024-01-15T04:19:44;8.10;;;1.00;;
76393;SDS011;65216;51.090;-115.352;2024-01-15T04:22:14;11.80;;;1.30;;
76393;SDS011;65216;51.090;-115.352;2024-01-15T04:24:41;7.10;;;1.10;;
76393;SDS011;65216;51.090;-115.352;2024-01-15T04:27:09;7.20;;;1.00;;
76393;SDS011;65216;51.090;-115.352;2024-01-15T04:29:38;10.10;;;1.00;;
76393;SDS011;65216;51.090;-115.352;2024-01-15T04:32:05;8.20;;;1.00;;
76393;SDS011;65216;51.090;-115.352;2024-01-15T04:34:33;5.40;;;1.10;;
76393;SDS011;65216;51.090;-115.352;2024-01-15T04:37:00;8.50;;;0.90;;
76393;SDS011;65216;51.090;-115.352;2024-01-15T04:39:27;4.30;;;0.90;;
76393;SDS011;65216;51.090;-115.352;2024-01-15T04:41:55;7.20;;;1.00;;
76393;SDS011;65216;51.090;-115.352;2024-01-15T04:44:22;6.90;;;1.10;;
76393;SDS011;65216;51.090;-115.352;2024-01-15T04:46:49;8.80;;;1.10;;
76393;SDS011;65216;51.090;-115.352;2024-01-15T04:49:16;8.80;;;1.00;;
76393;SDS011;65216;51.090;-115.352;2024-01-15T04:51:44;7.30;;;0.90;;
76393;SDS011;65216;51.090;-115.352;2024-01-15T04:54:11;6.00;;;1.20;;
76393;SDS011;65216;51.090;-115.352;2024-01-15T04:56:38;3.60;;;0.80;;
76393;SDS011;65216;51.090;-115.352;2024-01-15T04:59:05;4.80;;;0.70;;
76393;SDS011;65216;51.090;-115.352;2024-01-15T05:01:32;6.70;;;1.40;;
76393;SDS011;65216;51.090;-115.352;2024-01-15T05:03:59;6.20;;;0.90;;
76393;SDS011;65216;51.090;-115.352;2024-01-15T05:06:27;4.30;;;0.80;;
76393;SDS011;65216;51.090;-115.352;2024-01-15T05:08:54;8.30;;;1.20;;
76393;SDS011;65216;51.090;-115.352;2024-01-15T05:11:21;5.10;;;1.00;;
76393;SDS011;65216;51.090;-115.352;2024-01-15T05:13:49;6.00;;;1.00;;
76393;SDS011;65216;51.090;-115.352;2024-01-15T05:16:16;6.60;;;1.20;;
76393;SDS011;65216;51.090;-115.352;2024-01-15T05:18:44;5.00;;;1.10;;
76393;SDS011;65216;51.090;-115.352;2024-01-15T05:21:11;5.00;;;1.10;;
76393;SDS011;65216;51.090;-115.352;2024-01-15T05:23:38;8.80;;;1.10;;
76393;SDS011;65216;51.090;-115.352;2024-01-15T05:26:05;5.80;;;0.90;;
76393;SDS011;65216;51.090;-115.352;2024-01-15T05:28:34;4.40;;;1.00;;
76393;SDS011;65216;51.090;-115.352;2024-01-15T05:31:04;4.50;;;0.90;;
76393;SDS011;65216;51.090;-115.352;2024-01-15T05:33:31;5.50;;;0.80;;
76393;SDS011;65216;51.090;-115.352;2024-01-15T05:35:58;3.50;;;0.70;;
76393;SDS011;65216;51.090;-115.352;2024-01-15T05:38:25;2.90;;;0.70;;
76393;SDS011;65216;51.090;-115.352;2024-01-15T05:40:55;3.20;;;0.80;;
76393;SDS011;65216;51.090;-115.352;2024-01-15T05:43:23;3.50;;;0.80;;
76393;SDS011;65216;51.090;-115.352;2024-01-15T05:45:50;4.70;;;0.70;;
76393;SDS011;65216;51.090;-115.352;2024-01-15T05:48:17;2.50;;;0.70;;
76393;SDS011;65216;51.090;-115.352;2024-01-15T05:50:44;3.70;;;0.70;;
76393;SDS011;65216;51.090;-115.352;2024-01-15T05:53:11;3.50;;;0.70;;
76393;SDS011;65216;51.090;-115.352;2024-01-15T05:55:42;2.70;;;0.60;;
76393;SDS011;65216;51.090;-115.352;2024-01-15T05:58:09;4.10;;;0.70;;
76393;SDS011;65216;51.090;-115.352;2024-01-15T06:00:35;3.30;;;0.90;;
76393;SDS011;65216;51.090;-115.352;2024-01-15T06:03:04;6.40;;;1.60;;
76393;SDS011;65216;51.090;-115.352;2024-01-15T06:05:31;3.40;;;0.70;;
76393;SDS011;65216;51.090;-115.352;2024-01-15T06:07:58;3.40;;;0.60;;
76393;SDS011;65216;51.090;-115.352;2024-01-15T06:10:25;3.40;;;0.90;;
76393;SDS011;65216;51.090;-115.352;2024-01-15T06:12:52;8.80;;;0.90;;
76393;SDS011;65216;51.090;-115.352;2024-01-15T06:15:19;6.10;;;0.80;;
76393;SDS011;65216;51.090;-115.352;2024-01-15T06:17:46;2.90;;;0.60;;
76393;SDS011;65216;51.090;-115.352;2024-01-15T06:20:13;1.90;;;0.60;;
76393;SDS011;65216;51.090;-115.352;2024-01-15T06:22:40;1.80;;;0.60;;
76393;SDS011;65216;51.090;-115.352;2024-01-15T06:25:08;2.90;;;0.70;;
76393;SDS011;65216;51.090;-115.352;2024-01-15T06:27:35;3.30;;;0.50;;
76393;SDS011;65216;51.090;-115.352;2024-01-15T06:30:02;2.40;;;0.70;;
76393;SDS011;65216;51.090;-115.352;2024-01-15T06:32:29;3.10;;;0.80;;
76393;SDS011;65216;51.090;-115.352;2024-01-15T06:34:56;4.50;;;0.70;;
76393;SDS011;65216;51.090;-115.352;2024-01-15T06:37:23;1.50;;;0.50;;
76393;SDS011;65216;51.090;-115.352;2024-01-15T06:39:50;1.60;;;0.60;;
76393;SDS011;65216;51.090;-115.352;2024-01-15T06:42:18;2.40;;;0.60;;
76393;SDS011;65216;51.090;-115.352;2024-01-15T06:44:45;3.80;;;0.60;;
76393;SDS011;65216;51.090;-115.352;2024-01-15T06:47:12;1.20;;;0.40;;
76393;SDS011;65216;51.090;-115.352;2024-01-15T06:49:40;2.10;;;0.60;;
76393;SDS011;65216;51.090;-115.352;2024-01-15T06:52:07;2.60;;;0.60;;
76393;SDS011;65216;51.090;-115.352;2024-01-15T06:54:34;2.50;;;0.80;;
76393;SDS011;65216;51.090;-115.352;2024-01-15T06:57:01;3.10;;;0.50;;
76393;SDS011;65216;51.090;-115.352;2024-01-15T06:59:28;0.50;;;0.30;;
76393;SDS011;65216;51.090;-115.352;2024-01-15T07:01:55;3.60;;;1.00;;
76393;SDS011;65216;51.090;-115.352;2024-01-15T07:04:22;4.10;;;0.60;;
76393;SDS011;65216;51.090;-115.352;2024-01-15T07:06:49;2.90;;;0.70;;
76393;SDS011;65216;51.090;-115.352;2024-01-15T07:09:16;3.00;;;0.50;;
76393;SDS011;65216;51.090;-115.352;2024-01-15T07:11:47;3.80;;;0.70;;
76393;SDS011;65216;51.090;-115.352;2024-01-15T07:14:14;2.40;;;0.40;;
76393;SDS011;65216;51.090;-115.352;2024-01-15T07:16:41;1.40;;;0.40;;
76393;SDS011;65216;51.090;-115.352;2024-01-15T07:19:07;3.60;;;0.50;;
76393;SDS011;65216;51.090;-115.352;2024-01-15T07:21:34;0.90;;;0.50;;
76393;SDS011;65216;51.090;-115.352;2024-01-15T07:24:01;1.80;;;0.50;;
76393;SDS011;65216;51.090;-115.352;2024-01-15T07:26:30;2.10;;;0.60;;
76393;SDS011;65216;51.090;-115.352;2024-01-15T07:28:57;1.90;;;0.40;;
76393;SDS011;65216;51.090;-115.352;2024-01-15T07:31:24;1.00;;;0.40;;
76393;SDS011;65216;51.090;-115.352;2024-01-15T07:33:51;0.90;;;0.30;;
76393;SDS011;65216;51.090;-115.352;2024-01-15T07:36:18;1.50;;;0.40;;
76393;SDS011;65216;51.090;-115.352;2024-01-15T07:38:45;1.30;;;0.30;;
76393;SDS011;65216;51.090;-115.352;2024-01-15T07:41:13;1.40;;;0.40;;
76393;SDS011;65216;51.090;-115.352;2024-01-15T07:43:40;1.50;;;0.40;;
76393;SDS011;65216;51.090;-115.352;2024-01-15T07:46:07;1.80;;;0.20;;
76393;SDS011;65216;51.090;-115.352;2024-01-15T07:48:34;1.50;;;0.40;;
76393;SDS011;65216;51.090;-115.352;2024-01-15T07:51:01;2.60;;;0.60;;
76393;SDS011;65216;51.090;-115.352;2024-01-15T07:53:28;1.80;;;0.30;;
76393;SDS011;65216;51.090;-115.352;2024-01-15T07:55:55;1.20;;;0.30;;
76393;SDS011;65216;51.090;-115.352;2024-01-15T07:58:22;1.20;;;0.30;;
76393;SDS011;65216;51.090;-115.352;2024-01-15T08:00:49;0.50;;;0.20;;
76393;SDS011;65216;51.090;-115.352;2024-01-15T08:03:19;1.10;;;0.30;;
76393;SDS011;65216;51.090;-115.352;2024-01-15T08:05:46;1.30;;;0.30;;
76393;SDS011;65216;51.090;-115.352;2024-01-15T08:08:12;1.80;;;0.30;;
76393;SDS011;65216;51.090;-115.352;2024-01-15T08:10:40;1.20;;;0.40;;
76393;SDS011;65216;51.090;-115.352;2024-01-15T08:13:10;1.10;;;0.30;;
76393;SDS011;65216;51.090;-115.352;2024-01-15T08:15:36;0.50;;;0.20;;
76393;SDS011;65216;51.090;-115.352;2024-01-15T08:18:04;0.70;;;0.20;;
76393;SDS011;65216;51.090;-115.352;2024-01-15T08:20:32;0.80;;;0.30;;
76393;SDS011;65216;51.090;-115.352;2024-01-15T08:22:59;0.90;;;0.30;;
76393;SDS011;65216;51.090;-115.352;2024-01-15T08:25:26;1.00;;;0.30;;
76393;SDS011;65216;51.090;-115.352;2024-01-15T08:27:53;0.30;;;0.20;;
76393;SDS011;65216;51.090;-115.352;2024-01-15T08:30:20;0.80;;;0.30;;
76393;SDS011;65216;51.090;-115.352;2024-01-15T08:32:50;0.20;;;0.10;;
76393;SDS011;65216;51.090;-115.352;2024-01-15T08:35:18;0.30;;;0.20;;
76393;SDS011;65216;51.090;-115.352;2024-01-15T08:37:49;0.40;;;0.20;;
76393;SDS011;65216;51.090;-115.352;2024-01-15T08:40:16;0.20;;;0.10;;
76393;SDS011;65216;51.090;-115.352;2024-01-15T08:42:44;0.20;;;0.10;;
76393;SDS011;65216;51.090;-115.352;2024-01-15T08:45:12;0.60;;;0.30;;
76393;SDS011;65216;51.090;-115.352;2024-01-15T08:47:39;0.50;;;0.10;;
76393;SDS011;65216;51.090;-115.352;2024-01-15T08:50:06;0.40;;;0.20;;
76393;SDS011;65216;51.090;-115.352;2024-01-15T08:52:36;0.60;;;0.20;;
76393;SDS011;65216;51.090;-115.352;2024-01-15T08:55:04;0.50;;;0.10;;
76393;SDS011;65216;51.090;-115.352;2024-01-15T08:57:31;0.40;;;0.20;;
76393;SDS011;65216;51.090;-115.352;2024-01-15T08:59:58;1.20;;;0.20;;
76393;SDS011;65216;51.090;-115.352;2024-01-15T09:02:25;0.10;;;0.10;;
76393;SDS011;65216;51.090;-115.352;2024-01-15T09:04:52;1.20;;;0.20;;
76393;SDS011;65216;51.090;-115.352;2024-01-15T09:07:19;0.60;;;0.10;;
76393;SDS011;65216;51.090;-115.352;2024-01-15T09:09:46;0.30;;;0.30;;
76393;SDS011;65216;51.090;-115.352;2024-01-15T09:12:13;1.00;;;0.30;;
76393;SDS011;65216;51.090;-115.352;2024-01-15T09:14:41;1.50;;;0.20;;
76393;SDS011;65216;51.090;-115.352;2024-01-15T09:17:08;0.80;;;0.10;;
76393;SDS011;65216;51.090;-115.352;2024-01-15T09:19:36;0.10;;;0.10;;
76393;SDS011;65216;51.090;-115.352;2024-01-15T09:22:05;0.40;;;0.10;;
76393;SDS011;65216;51.090;-115.352;2024-01-15T09:24:33;0.40;;;0.20;;
76393;SDS011;65216;51.090;-115.352;2024-01-15T09:27:00;0.20;;;0.10;;
76393;SDS011;65216;51.090;-115.352;2024-01-15T09:29:28;0.60;;;0.10;;
76393;SDS011;65216;51.090;-115.352;2024-01-15T09:31:55;0.20;;;0.10;;
76393;SDS011;65216;51.090;-115.352;2024-01-15T09:34:22;0.10;;;0.10;;
76393;SDS011;65216;51.090;-115.352;2024-01-15T09:36:49;0.80;;;0.30;;
76393;SDS011;65216;51.090;-115.352;2024-01-15T09:39:16;1.60;;;0.30;;
76393;SDS011;65216;51.090;-115.352;2024-01-15T09:41:44;0.50;;;0.20;;
76393;SDS011;65216;51.090;-115.352;2024-01-15T09:44:14;0.50;;;0.20;;
76393;SDS011;65216;51.090;-115.352;2024-01-15T09:46:41;0.60;;;0.10;;
76393;SDS011;65216;51.090;-115.352;2024-01-15T09:49:10;0.20;;;0.10;;
76393;SDS011;65216;51.090;-115.352;2024-01-15T09:51:41;0.40;;;0.20;;
76393;SDS011;65216;51.090;-115.352;2024-01-15T09:54:08;0.30;;;0.10;;
76393;SDS011;65216;51.090;-115.352;2024-01-15T09:56:36;0.80;;;0.30;;
76393;SDS011;65216;51.090;-115.352;2024-01-15T09:59:03;0.70;;;0.30;;
76393;SDS011;65216;51.090;-115.352;2024-01-15T10:01:32;0.50;;;0.20;;
76393;SDS011;65216;51.090;-115.352;2024-01-15T10:04:02;0.30;;;0.20;;
76393;SDS011;65216;51.090;-115.352;2024-01-15T10:06:30;0.50;;;0.30;;
76393;SDS011;65216;51.090;-115.352;2024-01-15T10:08:58;0.00;;;0.00;;
76393;SDS011;65216;51.090;-115.352;2024-01-15T10:11:27;0.50;;;0.20;;
76393;SDS011;65216;51.090;-115.352;2024-01-15T10:13:57;0.50;;;0.20;;
76393;SDS011;65216;51.090;-115.352;2024-01-15T10:16:26;0.80;;;0.30;;
76393;SDS011;65216;51.090;-115.352;2024-01-15T10:18:52;0.00;;;0.00;;
76393;SDS011;65216;51.090;-115.352;2024-01-15T10:21:20;0.70;;;0.20;;
76393;SDS011;65216;51.090;-115.352;2024-01-15T10:23:47;0.00;;;0.00;;
76393;SDS011;65216;51.090;-115.352;2024-01-15T10:26:14;0.20;;;0.10;;
76393;SDS011;65216;51.090;-115.352;2024-01-15T10:28:41;1.10;;;0.10;;
76393;SDS011;65216;51.090;-115.352;2024-01-15T10:31:08;0.40;;;0.20;;
76393;SDS011;65216;51.090;-115.352;2024-01-15T10:33:36;0.90;;;0.50;;
76393;SDS011;65216;51.090;-115.352;2024-01-15T10:36:09;0.10;;;0.10;;
76393;SDS011;65216;51.090;-115.352;2024-01-15T10:38:37;0.40;;;0.10;;
76393;SDS011;65216;51.090;-115.352;2024-01-15T10:41:04;0.30;;;0.10;;
76393;SDS011;65216;51.090;-115.352;2024-01-15T10:43:31;0.20;;;0.10;;
76393;SDS011;65216;51.090;-115.352;2024-01-15T10:45:58;0.30;;;0.10;;
76393;SDS011;65216;51.090;-115.352;2024-01-15T10:48:26;0.10;;;0.10;;
76393;SDS011;65216;51.090;-115.352;2024-01-15T10:50:54;0.00;;;0.00;;
76393;SDS011;65216;51.090;-115.352;2024-01-15T10:53:21;0.10;;;0.10;;
76393;SDS011;65216;51.090;-115.352;2024-01-15T10:55:51;0.10;;;0.10;;
76393;SDS011;65216;51.090;-115.352;2024-01-15T10:58:18;0.30;;;0.10;;
76393;SDS011;65216;51.090;-115.352;2024-01-15T11:00:49;0.30;;;0.10;;
76393;SDS011;65216;51.090;-115.352;2024-01-15T11:03:18;1.00;;;0.30;;
76393;SDS011;65216;51.090;-115.352;2024-01-15T11:05:45;0.00;;;0.00;;
76393;SDS011;65216;51.090;-115.352;2024-01-15T11:08:13;0.20;;;0.10;;
76393;SDS011;65216;51.090;-115.352;2024-01-15T11:10:50;0.30;;;0.20;;
76393;SDS011;65216;51.090;-115.352;2024-01-15T11:16:06;1.40;;;0.40;;
76393;SDS011;65216;51.090;-115.352;2024-01-15T11:18:41;0.40;;;0.20;;
76393;SDS011;65216;51.090;-115.352;2024-01-15T11:23:45;0.40;;;0.10;;
76393;SDS011;65216;51.090;-115.352;2024-01-15T11:26:44;0.30;;;0.30;;
76393;SDS011;65216;51.090;-115.352;2024-01-15T11:29:34;1.50;;;0.30;;
76393;SDS011;65216;51.090;-115.352;2024-01-15T11:32:09;1.10;;;0.20;;
76393;SDS011;65216;51.090;-115.352;2024-01-15T11:34:52;0.60;;;0.20;;
76393;SDS011;65216;51.090;-115.352;2024-01-15T11:37:21;0.20;;;0.00;;
76393;SDS011;65216;51.090;-115.352;2024-01-15T11:39:52;0.50;;;0.10;;
76393;SDS011;65216;51.090;-115.352;2024-01-15T11:42:22;0.40;;;0.10;;
76393;SDS011;65216;51.090;-115.352;2024-01-15T11:44:49;0.40;;;0.20;;
76393;SDS011;65216;51.090;-115.352;2024-01-15T11:47:43;0.80;;;0.20;;
76393;SDS011;65216;51.090;-115.352;2024-01-15T11:50:15;0.10;;;0.10;;
76393;SDS011;65216;51.090;-115.352;2024-01-15T11:52:59;0.20;;;0.10;;
76393;SDS011;65216;51.090;-115.352;2024-01-15T11:55:36;0.20;;;0.20;;
76393;SDS011;65216;51.090;-115.352;2024-01-15T11:58:08;0.40;;;0.10;;
76393;SDS011;65216;51.090;-115.352;2024-01-15T12:00:42;0.30;;;0.20;;
76393;SDS011;65216;51.090;-115.352;2024-01-15T12:03:16;0.40;;;0.20;;
76393;SDS011;65216;51.090;-115.352;2024-01-15T12:05:42;0.30;;;0.20;;
76393;SDS011;65216;51.090;-115.352;2024-01-15T12:08:09;0.10;;;0.10;;
76393;SDS011;65216;51.090;-115.352;2024-01-15T12:10:37;0.60;;;0.30;;
76393;SDS011;65216;51.090;-115.352;2024-01-15T12:15:41;0.40;;;0.20;;
76393;SDS011;65216;51.090;-115.352;2024-01-15T12:18:14;0.30;;;0.20;;
76393;SDS011;65216;51.090;-115.352;2024-01-15T12:20:44;0.10;;;0.10;;
76393;SDS011;65216;51.090;-115.352;2024-01-15T12:23:15;0.70;;;0.30;;
76393;SDS011;65216;51.090;-115.352;2024-01-15T12:25:43;2.50;;;0.20;;
76393;SDS011;65216;51.090;-115.352;2024-01-15T12:28:10;0.30;;;0.10;;
76393;SDS011;65216;51.090;-115.352;2024-01-15T12:30:37;1.00;;;0.30;;
76393;SDS011;65216;51.090;-115.352;2024-01-15T12:33:06;1.00;;;0.20;;
76393;SDS011;65216;51.090;-115.352;2024-01-15T12:35:34;0.10;;;0.10;;
76393;SDS011;65216;51.090;-115.352;2024-01-15T12:38:02;0.40;;;0.10;;
76393;SDS011;65216;51.090;-115.352;2024-01-15T12:40:31;0.00;;;0.00;;
76393;SDS011;65216;51.090;-115.352;2024-01-15T12:43:00;0.20;;;0.10;;
76393;SDS011;65216;51.090;-115.352;2024-01-15T12:45:27;0.20;;;0.10;;
76393;SDS011;65216;51.090;-115.352;2024-01-15T12:47:54;0.10;;;0.10;;
76393;SDS011;65216;51.090;-115.352;2024-01-15T12:50:24;0.30;;;0.10;;
76393;SDS011;65216;51.090;-115.352;2024-01-15T12:52:52;0.00;;;0.00;;
76393;SDS011;65216;51.090;-115.352;2024-01-15T12:55:18;0.60;;;0.20;;
76393;SDS011;65216;51.090;-115.352;2024-01-15T12:57:45;0.60;;;0.10;;
76393;SDS011;65216;51.090;-115.352;2024-01-15T13:00:15;1.30;;;0.20;;
76393;SDS011;65216;51.090;-115.352;2024-01-15T13:02:43;0.20;;;0.00;;
76393;SDS011;65216;51.090;-115.352;2024-01-15T13:05:10;0.10;;;0.10;;
76393;SDS011;65216;51.090;-115.352;2024-01-15T13:07:37;0.10;;;0.10;;
76393;SDS011;65216;51.090;-115.352;2024-01-15T13:10:06;0.90;;;0.20;;
76393;SDS011;65216;51.090;-115.352;2024-01-15T13:12:35;0.30;;;0.20;;
76393;SDS011;65216;51.090;-115.352;2024-01-15T13:15:03;0.00;;;0.00;;
76393;SDS011;65216;51.090;-115.352;2024-01-15T13:17:31;0.60;;;0.20;;
76393;SDS011;65216;51.090;-115.352;2024-01-15T13:19:58;0.10;;;0.00;;
76393;SDS011;65216;51.090;-115.352;2024-01-15T13:22:25;0.40;;;0.20;;
76393;SDS011;65216;51.090;-115.352;2024-01-15T13:24:58;0.00;;;0.00;;
76393;SDS011;65216;51.090;-115.352;2024-01-15T13:27:30;0.10;;;0.10;;
76393;SDS011;65216;51.090;-115.352;2024-01-15T13:29:57;0.10;;;0.10;;
76393;SDS011;65216;51.090;-115.352;2024-01-15T13:32:28;0.50;;;0.20;;
76393;SDS011;65216;51.090;-115.352;2024-01-15T13:34:56;0.10;;;0.10;;
76393;SDS011;65216;51.090;-115.352;2024-01-15T13:37:23;0.30;;;0.10;;
76393;SDS011;65216;51.090;-115.352;2024-01-15T13:39:51;0.10;;;0.00;;
76393;SDS011;65216;51.090;-115.352;2024-01-15T13:42:18;0.30;;;0.10;;
76393;SDS011;65216;51.090;-115.352;2024-01-15T13:44:48;0.30;;;0.10;;
76393;SDS011;65216;51.090;-115.352;2024-01-15T13:47:15;0.10;;;0.00;;
76393;SDS011;65216;51.090;-115.352;2024-01-15T13:49:42;0.10;;;0.10;;
76393;SDS011;65216;51.090;-115.352;2024-01-15T13:52:09;0.20;;;0.20;;
76393;SDS011;65216;51.090;-115.352;2024-01-15T13:54:36;0.40;;;0.10;;
76393;SDS011;65216;51.090;-115.352;2024-01-15T13:57:04;0.10;;;0.10;;
76393;SDS011;65216;51.090;-115.352;2024-01-15T13:59:32;0.20;;;0.10;;
76393;SDS011;65216;51.090;-115.352;2024-01-15T14:01:59;0.20;;;0.10;;
76393;SDS011;65216;51.090;-115.352;2024-01-15T14:04:27;0.70;;;0.10;;
76393;SDS011;65216;51.090;-115.352;2024-01-15T14:06:53;1.00;;;0.10;;
76393;SDS011;65216;51.090;-115.352;2024-01-15T14:09:20;2.60;;;0.20;;
76393;SDS011;65216;51.090;-115.352;2024-01-15T14:11:48;0.20;;;0.10;;
76393;SDS011;65216;51.090;-115.352;2024-01-15T14:14:15;1.30;;;0.30;;
76393;SDS011;65216;51.090;-115.352;2024-01-15T14:16:44;1.20;;;0.30;;
76393;SDS011;65216;51.090;-115.352;2024-01-15T14:19:12;1.50;;;0.30;;